CheckWX is a tool to help pilots better visualize weather data.  It is not intended as a substitute for an official pre-flight weather briefing.

05:43:48 UTC

EGGD METAR
Bristol International Airport
Bristol, United Kingdom
Current

24 mins ago

EGGD 250520Z AUTO 33009KT 9999 FEW026 BKN031 OVC044 07/02 Q1031
Observed
Mar-25 @ 05:20 UTC
Wind
  • 330° at 9 KTS
Visibility
10,000+ meters
Flight Rules
VFR
Cloud Levels
  • Few at 2,600' AGL
  • Broken at 3,100' AGL
  • Overcast at 4,400' AGL
Temperature
C / 45°F
Dewpoint
C / 36°F
Humidity
71%
Altimeter
30.44" Hg
Pressure
1030.91 hPa
Previous

54 mins ago

EGGD 250450Z AUTO 32009KT 9999 SCT031 BKN037 OVC044 07/02 Q1031
Observed
Mar-25 @ 04:50 UTC
Wind
  • 320° at 9 KTS
Visibility
10,000+ meters
Flight Rules
VFR
Cloud Levels
  • Scattered at 3,100' AGL
  • Broken at 3,700' AGL
  • Overcast at 4,400' AGL
Temperature
C / 45°F
Dewpoint
C / 36°F
Humidity
71%
Altimeter
30.44" Hg
Pressure
1030.91 hPa
Previous

1 hour ago

EGGD 250420Z AUTO 31006KT 280V350 9999 BKN040 07/03 Q1030
Observed
Mar-25 @ 04:20 UTC
Wind
  • 310° at 6 KTS
Visibility
10,000+ meters
Flight Rules
VFR
Cloud Levels
  • Broken at 4,000' AGL
Temperature
C / 45°F
Dewpoint
C / 37°F
Humidity
76%
Altimeter
30.41" Hg
Pressure
1029.91 hPa